Terminal Aerodrome Forecast
Issued by NWS Omaha/Valley, NE

Home | Current Version | Previous Version | Text Only | Print | Product List | Glossary Off
Versions: 1 2 3 4 5 6 7 8 9 10 11 12 13 14 15 16 17 18 19 20 21 22

000
FTUS43 KOAX 230539 AAA
TAFOFK
TAF AMD
KOFK 230539Z 2306/2406 14013G20KT P6SM OVC035
     FM231000 15012KT P6SM OVC025 WS020/18045KT
     FM231500 16015G23KT P6SM OVC008 WS020/18048KT
     FM232100 17015G23KT P6SM BKN030
     FM240300 17011G21KT P6SM OVC060=

USA.gov is the U.S. government's official web portal to all federal, state and local government web resources and services.